Time;durP1;ratioP1;P1;durP2;ratioP2;P2;SDS_P1;SDS_P2;PMS_P1;PMS_P2;Temp;Humidity;BMP_temperature;BMP_pressure;BME280_temperature;BME280_humidity;BME280_pressure;Samples;Min_cycle;Max_cycle;Signal;HPM_P1;HPM_P2
2022/06/27 00:00:07;;;;;;;7.40;4.15;;;18.50;78.80;;;;;;5052881;28;20102;-37
2022/06/27 00:02:32;;;;;;;4.20;3.80;;;18.50;78.90;;;;;;5052921;28;20044;-37
2022/06/27 00:04:58;;;;;;;5.13;4.55;;;18.50;78.90;;;;;;5052923;28;20025;-38
2022/06/27 00:07:23;;;;;;;5.85;3.83;;;18.50;78.70;;;;;;5053131;28;20059;-37
2022/06/27 00:09:49;;;;;;;5.40;4.30;;;18.50;78.70;;;;;;5053134;28;20464;-38
2022/06/27 00:12:15;;;;;;;6.15;4.68;;;18.40;78.60;;;;;;5053214;28;20031;-37
2022/06/27 00:14:40;;;;;;;3.97;3.58;;;18.40;78.60;;;;;;5052839;28;20115;-38
2022/06/27 00:17:06;;;;;;;5.97;3.78;;;18.40;78.60;;;;;;5051758;28;20024;-44
2022/06/27 00:19:32;;;;;;;7.25;3.70;;;18.40;78.90;;;;;;5052729;28;20082;-37
2022/06/27 00:21:57;;;;;;;4.55;3.70;;;18.40;79.20;;;;;;5053068;28;20103;-37
2022/06/27 00:24:23;;;;;;;7.20;4.00;;;18.40;79.30;;;;;;5052805;28;20116;-37
2022/06/27 00:26:49;;;;;;;6.70;4.22;;;18.30;79.70;;;;;;5052848;28;20032;-37
2022/06/27 00:29:15;;;;;;;4.70;4.10;;;18.30;79.90;;;;;;5052410;28;20028;-37
2022/06/27 00:31:41;;;;;;;6.95;4.65;;;18.30;79.90;;;;;;5051856;28;20029;-37
2022/06/27 00:34:07;;;;;;;6.10;4.43;;;18.40;80.30;;;;;;5052857;28;20107;-37
2022/06/27 00:36:32;;;;;;;5.90;4.25;;;18.40;80.10;;;;;;5052617;28;20025;-37
2022/06/27 00:38:58;;;;;;;8.55;5.20;;;18.40;80.50;;;;;;5052406;28;20027;-37
2022/06/27 00:41:24;;;;;;;4.53;3.55;;;18.40;80.00;;;;;;5053896;28;20375;-37
2022/06/27 00:43:50;;;;;;;8.02;4.60;;;18.40;80.00;;;;;;5056268;28;20036;-37
2022/06/27 00:46:15;;;;;;;5.00;4.50;;;18.40;79.70;;;;;;5056313;28;20083;-37
2022/06/27 00:48:41;;;;;;;6.60;5.03;;;18.40;79.90;;;;;;5056246;28;20473;-37
2022/06/27 00:51:08;;;;;;;6.63;4.55;;;18.50;80.10;;;;;;5056361;28;20036;-37
2022/06/27 00:53:34;;;;;;;6.05;4.47;;;18.40;79.80;;;;;;5056491;28;20083;-37
2022/06/27 00:56:00;;;;;;;6.15;3.83;;;18.50;80.00;;;;;;5058137;28;20021;-38
2022/06/27 00:58:26;;;;;;;5.68;4.80;;;18.50;79.70;;;;;;5056259;28;20074;-38
2022/06/27 01:00:52;;;;;;;4.55;4.07;;;18.40;79.90;;;;;;5054840;28;20020;-38
2022/06/27 01:03:18;;;;;;;6.78;5.18;;;18.40;79.90;;;;;;5055914;28;20021;-37
2022/06/27 01:05:51;;;;;;;5.38;3.95;;;18.30;80.10;;;;;;5055906;28;20155;-37
2022/06/27 01:08:22;;;;;;;6.55;5.22;;;18.20;80.60;;;;;;5056177;28;20071;-37
2022/06/27 01:10:48;;;;;;;6.47;4.20;;;18.30;80.80;;;;;;5056173;28;20104;-37
2022/06/27 01:13:14;;;;;;;7.28;4.53;;;18.20;81.10;;;;;;5056323;28;20033;-37
2022/06/27 01:15:42;;;;;;;7.53;4.85;;;18.20;81.10;;;;;;5055995;28;20488;-37
2022/06/27 01:18:10;;;;;;;5.55;4.18;;;18.20;81.10;;;;;;5055627;28;20017;-37
2022/06/27 01:20:36;;;;;;;5.93;4.60;;;18.20;81.00;;;;;;5055809;28;20033;-37
2022/06/27 01:23:02;;;;;;;5.45;4.47;;;18.20;81.10;;;;;;5055555;28;20013;-37
2022/06/27 01:25:28;;;;;;;5.47;4.93;;;18.20;81.10;;;;;;5055531;28;20028;-37
2022/06/27 01:27:54;;;;;;;6.78;5.10;;;18.10;81.00;;;;;;5055473;28;20087;-37
2022/06/27 01:30:21;;;;;;;6.65;4.75;;;18.10;81.10;;;;;;5055406;28;20029;-38
2022/06/27 01:32:49;;;;;;;7.80;4.75;;;18.20;81.10;;;;;;5055432;28;20039;-37
2022/06/27 01:35:15;;;;;;;4.55;4.15;;;18.20;81.20;;;;;;5055577;28;20061;-38
2022/06/27 01:37:41;;;;;;;6.25;4.13;;;18.20;81.10;;;;;;5055243;28;20021;-37
2022/06/27 01:40:07;;;;;;;14.80;5.10;;;18.20;81.30;;;;;;5055301;28;20491;-38
2022/06/27 01:42:33;;;;;;;5.85;4.38;;;18.10;81.40;;;;;;5055193;28;20391;-37
2022/06/27 01:44:59;;;;;;;8.82;4.95;;;18.10;81.50;;;;;;5055170;28;20028;-38
2022/06/27 01:47:26;;;;;;;8.85;5.07;;;18.00;81.60;;;;;;5054149;28;20025;-38
2022/06/27 01:49:51;;;;;;;6.45;4.70;;;18.00;81.70;;;;;;5055349;28;20032;-37
2022/06/27 01:52:18;;;;;;;7.28;4.47;;;18.00;81.70;;;;;;5054823;28;20052;-38
2022/06/27 01:54:44;;;;;;;11.55;4.90;;;18.00;81.80;;;;;;5055030;28;20045;-38
2022/06/27 01:57:09;;;;;;;9.70;5.13;;;18.00;81.80;;;;;;5053678;28;20021;-38
2022/06/27 01:59:36;;;;;;;9.25;4.32;;;18.20;81.30;;;;;;5053628;28;20060;-37
2022/06/27 02:02:03;;;;;;;6.47;4.30;;;18.20;81.10;;;;;;5055186;28;20040;-38
2022/06/27 02:04:30;;;;;;;5.88;4.10;;;18.20;81.00;;;;;;5054854;28;20146;-37
2022/06/27 02:06:57;;;;;;;5.28;4.75;;;18.20;81.10;;;;;;5054906;28;20028;-38
2022/06/27 02:09:23;;;;;;;4.43;4.00;;;18.10;81.20;;;;;;5055493;28;20029;-37
2022/06/27 02:11:54;;;;;;;9.18;5.13;;;18.10;81.20;;;;;;5054750;28;20491;-37
2022/06/27 02:14:20;;;;;;;8.25;4.72;;;18.10;81.50;;;;;;5054917;28;20028;-37
2022/06/27 02:16:47;;;;;;;7.85;5.13;;;18.20;80.90;;;;;;5054706;28;20029;-37
2022/06/27 02:19:17;;;;;;;7.35;4.43;;;18.30;80.80;;;;;;5054613;28;20097;-53
2022/06/27 02:21:43;;;;;;;8.60;5.00;;;18.30;80.70;;;;;;5054854;28;20021;-49
2022/06/27 02:24:10;;;;;;;6.82;4.68;;;18.30;80.90;;;;;;5054496;28;20449;-49
2022/06/27 02:26:37;;;;;;;8.13;5.80;;;18.30;80.90;;;;;;5055256;28;20032;-52
2022/06/27 02:29:03;;;;;;;5.97;4.35;;;18.30;80.80;;;;;;5054773;28;20472;-51
2022/06/27 02:31:29;;;;;;;5.38;4.88;;;18.20;80.80;;;;;;5054378;28;20024;-49
2022/06/27 02:33:55;;;;;;;9.38;4.57;;;18.10;81.00;;;;;;5054267;28;20017;-49
2022/06/27 02:36:30;;;;;;;6.95;4.78;;;18.00;81.40;;;;;;5054272;28;20127;-52
2022/06/27 02:38:57;;;;;;;12.13;5.18;;;17.90;81.50;;;;;;5054288;28;20025;-52
2022/06/27 02:41:26;;;;;;;7.18;4.95;;;17.90;81.70;;;;;;5054183;28;20480;-49
2022/06/27 02:43:55;;;;;;;9.60;5.40;;;17.80;81.90;;;;;;5054069;28;20024;-49
2022/06/27 02:46:21;;;;;;;7.13;5.55;;;17.80;82.10;;;;;;5053910;28;20040;-50
2022/06/27 02:48:49;;;;;;;4.32;3.92;;;17.80;82.20;;;;;;5052696;28;20070;-52
2022/06/27 02:51:21;;;;;;;10.85;4.80;;;17.90;82.20;;;;;;5054092;28;20039;-49
2022/06/27 02:53:53;;;;;;;5.82;4.47;;;17.90;82.00;;;;;;5053701;28;20134;-48
2022/06/27 02:56:24;;;;;;;7.57;5.25;;;18.00;82.10;;;;;;5053713;28;20090;-49
2022/06/27 02:59:04;;;;;;;8.15;4.53;;;18.00;82.20;;;;;;5053715;28;20091;-49
2022/06/27 03:01:31;;;;;;;7.35;5.80;;;17.90;82.40;;;;;;5053717;28;20369;-51
2022/06/27 03:03:59;;;;;;;6.97;5.30;;;17.90;82.50;;;;;;5051872;28;20021;-49
2022/06/27 03:06:25;;;;;;;7.43;5.45;;;17.90;82.70;;;;;;5053665;28;20079;-49
2022/06/27 03:08:50;;;;;;;7.55;5.80;;;17.90;82.60;;;;;;5053704;28;20028;-50
2022/06/27 20:20:25;;;;;;;6.35;4.32;;;15.40;84.80;;;;;;5070962;28;20417;-50
2022/06/27 20:22:54;;;;;;;4.85;4.30;;;15.50;85.00;;;;;;5069091;28;20039;-48
2022/06/27 20:25:20;;;;;;;6.25;3.75;;;15.50;84.80;;;;;;5068770;28;20531;-50
2022/06/27 20:27:45;;;;;;;6.55;4.97;;;15.60;84.70;;;;;;5069574;28;20056;-49
2022/06/27 20:30:13;;;;;;;5.78;3.80;;;15.60;84.60;;;;;;5070528;28;20038;-51
2022/06/27 20:32:40;;;;;;;10.55;5.88;;;15.70;84.50;;;;;;5070220;28;20448;-50
2022/06/27 20:35:07;;;;;;;9.32;4.25;;;15.60;84.50;;;;;;5070140;28;20025;-49
2022/06/27 20:37:34;;;;;;;5.85;3.72;;;15.60;84.40;;;;;;5070077;28;20029;-50
2022/06/27 20:39:59;;;;;;;4.45;3.58;;;15.60;84.50;;;;;;5069704;28;20035;-49
2022/06/27 20:42:25;;;;;;;10.57;4.00;;;15.60;84.50;;;;;;5069809;28;20100;-49
2022/06/27 20:44:51;;;;;;;7.30;3.55;;;15.50;84.80;;;;;;5069937;28;20012;-50
2022/06/27 20:47:16;;;;;;;6.38;4.35;;;15.50;84.90;;;;;;5069938;28;20025;-49
2022/06/27 20:49:42;;;;;;;4.97;4.47;;;15.50;85.00;;;;;;5068373;28;20392;-53
2022/06/27 20:52:09;;;;;;;5.38;4.32;;;15.50;84.90;;;;;;5069908;28;20024;-52
2022/06/27 20:54:36;;;;;;;4.90;3.97;;;15.50;84.90;;;;;;5069861;28;20373;-49
2022/06/27 20:57:02;;;;;;;13.15;5.00;;;15.50;85.00;;;;;;5069812;28;20507;-52
2022/06/27 20:59:28;;;;;;;4.70;3.78;;;15.50;85.00;;;;;;5051398;28;20028;-50
2022/06/27 21:01:54;;;;;;;8.13;4.97;;;15.50;84.90;;;;;;5069344;28;20021;-50
2022/06/27 21:04:20;;;;;;;8.57;5.30;;;15.50;85.20;;;;;;5069750;28;20364;-50
2022/06/27 21:06:46;;;;;;;8.70;5.93;;;15.50;85.10;;;;;;5069636;28;20099;-51
2022/06/27 21:11:58;;;;;;;6.95;5.45;;;15.40;85.70;;;;;;5069830;28;20384;-49
2022/06/27 21:14:27;;;;;;;7.22;5.38;;;15.30;85.80;;;;;;5069839;28;20041;-49
2022/06/27 21:16:54;;;;;;;9.90;6.35;;;15.30;85.90;;;;;;5069127;28;20028;-50
2022/06/27 21:19:19;;;;;;;12.60;6.70;;;15.30;85.80;;;;;;5068973;28;20053;-49
2022/06/27 21:21:46;;;;;;;6.60;4.95;;;15.30;86.10;;;;;;5069133;28;20047;-49
2022/06/27 21:24:12;;;;;;;11.40;5.57;;;15.20;86.40;;;;;;5067570;28;20021;-49
2022/06/27 21:26:39;;;;;;;8.75;5.57;;;15.30;86.50;;;;;;5069303;28;20021;-50
2022/06/27 21:29:04;;;;;;;9.90;6.20;;;15.30;86.30;;;;;;5067906;28;20552;-49
2022/06/27 21:31:30;;;;;;;9.75;5.68;;;15.30;86.20;;;;;;5057637;28;20103;-50
2022/06/27 21:33:56;;;;;;;8.23;5.20;;;15.20;86.40;;;;;;5055846;28;20025;-50
2022/06/27 21:36:22;;;;;;;9.05;6.13;;;15.20;86.60;;;;;;5055619;28;20032;-50
2022/06/27 21:38:47;;;;;;;10.88;6.20;;;15.20;86.70;;;;;;5054564;28;20029;-50
2022/06/27 21:41:13;;;;;;;10.32;6.50;;;15.20;86.50;;;;;;5055841;28;20021;-49
2022/06/27 21:43:39;;;;;;;9.35;5.70;;;15.10;87.00;;;;;;5054238;28;20033;-50
2022/06/27 21:46:05;;;;;;;8.35;5.95;;;15.20;87.40;;;;;;5055981;28;20029;-51
2022/06/27 21:48:31;;;;;;;7.75;5.65;;;15.20;87.30;;;;;;5055459;28;20029;-48
2022/06/27 21:50:57;;;;;;;12.93;6.43;;;15.20;87.10;;;;;;5055731;28;20052;-49
2022/06/27 21:53:23;;;;;;;10.00;5.53;;;15.10;87.20;;;;;;5054132;28;20082;-51
2022/06/27 21:55:48;;;;;;;10.07;6.65;;;15.20;87.30;;;;;;5055608;28;20033;-49
2022/06/27 21:58:14;;;;;;;10.00;6.10;;;15.10;87.40;;;;;;5055426;28;20039;-48
2022/06/27 22:00:43;;;;;;;9.32;6.13;;;15.10;87.80;;;;;;5055341;28;20032;-49
2022/06/27 22:03:12;;;;;;;7.45;5.63;;;15.10;87.90;;;;;;5055476;28;20021;-49
2022/06/27 22:05:39;;;;;;;9.02;6.60;;;15.10;88.10;;;;;;5053943;28;20029;-51
2022/06/27 22:08:06;;;;;;;10.45;6.18;;;15.10;88.20;;;;;;5055458;28;20025;-49
2022/06/27 22:10:33;;;;;;;10.15;7.45;;;15.10;88.20;;;;;;5055519;28;20120;-49
2022/06/27 22:13:01;;;;;;;15.70;6.57;;;15.10;88.10;;;;;;5055192;28;20057;-49
2022/06/27 22:15:33;;;;;;;9.48;7.30;;;15.00;88.20;;;;;;5055396;28;20025;-49
2022/06/27 22:18:00;;;;;;;13.27;6.05;;;15.00;88.20;;;;;;5054886;28;20021;-50
2022/06/27 22:20:27;;;;;;;8.13;5.95;;;15.00;88.20;;;;;;5055370;28;20033;-49
2022/06/27 22:22:53;;;;;;;11.40;6.18;;;14.80;88.10;;;;;;5055590;28;20032;-51
2022/06/27 22:25:18;;;;;;;11.10;6.40;;;14.80;88.30;;;;;;5055200;28;20465;-49
2022/06/27 22:27:44;;;;;;;10.93;6.00;;;14.80;88.50;;;;;;5054915;28;20031;-49
2022/06/27 22:30:13;;;;;;;8.93;7.13;;;14.80;88.50;;;;;;5055049;28;20116;-50
2022/06/27 22:32:40;;;;;;;11.55;7.70;;;14.80;88.50;;;;;;5055694;28;20021;-50
2022/06/27 22:35:06;;;;;;;8.65;6.35;;;14.80;88.60;;;;;;5055081;28;20032;-50
2022/06/27 22:37:32;;;;;;;8.20;7.35;;;14.80;88.80;;;;;;5055286;28;20025;-50
2022/06/27 22:39:58;;;;;;;11.10;6.50;;;14.80;88.80;;;;;;5054283;28;20120;-49
2022/06/27 22:42:23;;;;;;;14.65;6.13;;;14.70;89.20;;;;;;5053754;28;20476;-49
2022/06/27 22:44:49;;;;;;;10.98;6.13;;;14.70;89.20;;;;;;5054755;28;20021;-51
2022/06/27 22:47:15;;;;;;;10.63;5.80;;;14.60;89.20;;;;;;5055143;28;20028;-49
2022/06/27 22:49:41;;;;;;;8.88;6.45;;;14.50;89.20;;;;;;5055420;28;20048;-49
2022/06/27 22:52:07;;;;;;;13.30;7.35;;;14.50;89.30;;;;;;5055686;28;20060;-50
2022/06/27 22:54:33;;;;;;;13.70;8.02;;;14.50;89.40;;;;;;5054063;28;20032;-50
2022/06/27 22:56:59;;;;;;;10.80;6.70;;;14.50;89.50;;;;;;5055435;28;20041;-49
2022/06/27 22:59:25;;;;;;;8.90;7.18;;;14.50;89.70;;;;;;5055634;28;20203;-50
2022/06/27 23:01:52;;;;;;;9.90;8.45;;;14.50;89.90;;;;;;5055693;28;20476;-49
2022/06/27 23:04:19;;;;;;;14.57;8.00;;;14.60;90.10;;;;;;5055294;28;20021;-50
2022/06/27 23:06:46;;;;;;;13.32;7.90;;;14.60;90.10;;;;;;5054859;28;20021;-51
2022/06/27 23:09:13;;;;;;;11.32;8.30;;;14.60;89.90;;;;;;5054423;28;20021;-50
2022/06/27 23:11:39;;;;;;;12.80;8.35;;;14.60;90.00;;;;;;5054486;28;20067;-52
2022/06/27 23:14:05;;;;;;;14.35;7.47;;;14.50;90.00;;;;;;5054190;28;20033;-49
2022/06/27 23:16:31;;;;;;;10.13;8.07;;;14.60;90.10;;;;;;5054045;28;20025;-52
2022/06/27 23:18:57;;;;;;;9.73;7.25;;;14.40;90.20;;;;;;5053848;28;20068;-53
2022/06/27 23:21:23;;;;;;;11.45;7.63;;;14.40;90.30;;;;;;5053928;28;20056;-50
2022/06/27 23:23:49;;;;;;;11.88;8.13;;;14.40;90.30;;;;;;5054019;28;20025;-50
2022/06/27 23:26:16;;;;;;;13.60;8.25;;;14.40;90.20;;;;;;5053820;28;20544;-50
2022/06/27 23:28:42;;;;;;;12.65;8.40;;;14.30;90.40;;;;;;5052613;28;20103;-49
2022/06/27 23:31:08;;;;;;;13.85;7.28;;;14.30;90.60;;;;;;5054014;28;20134;-49
2022/06/27 23:33:34;;;;;;;13.15;8.40;;;14.30;90.60;;;;;;5054044;28;20025;-51
2022/06/27 23:36:00;;;;;;;13.35;8.05;;;14.30;90.60;;;;;;5053720;28;20037;-49
2022/06/27 23:38:26;;;;;;;10.98;7.07;;;14.30;90.60;;;;;;5052123;28;20404;-52
2022/06/27 23:40:52;;;;;;;10.15;7.53;;;14.30;90.50;;;;;;5053465;28;20028;-49
2022/06/27 23:43:17;;;;;;;11.63;7.82;;;14.30;90.40;;;;;;5053506;28;20104;-50
2022/06/27 23:45:43;;;;;;;11.80;8.13;;;14.30;90.40;;;;;;5053429;28;20035;-49
2022/06/27 23:48:09;;;;;;;12.10;7.60;;;14.30;90.40;;;;;;5052033;28;20028;-50
2022/06/27 23:50:35;;;;;;;11.20;8.50;;;14.20;90.40;;;;;;5052124;28;20047;-50
2022/06/27 23:53:01;;;;;;;8.25;7.40;;;14.20;90.50;;;;;;5053077;28;20469;-50
2022/06/27 23:55:28;;;;;;;13.65;7.38;;;14.20;90.50;;;;;;5051842;28;20390;-50
2022/06/27 23:57:54;;;;;;;14.40;7.75;;;14.20;90.70;;;;;;5053401;28;20028;-49
